Time;durP1;ratioP1;P1;durP2;ratioP2;P2;SDS_P1;SDS_P2;PMS_P1;PMS_P2;Temp;Humidity;BMP_temperature;BMP_pressure;BME280_temperature;BME280_humidity;BME280_pressure;Samples;Min_cycle;Max_cycle;Signal;HPM_P1;HPM_P2
2023/04/04 00:01:41;;;;;;;4.10;3.30;;;;;;;2.87;95.43;99748.90;105884;1259;59267;-79
2023/04/04 00:04:16;;;;;;;4.80;4.00;;;;;;;2.88;95.07;99748.49;106031;1255;73990;-77
2023/04/04 00:06:44;;;;;;;4.10;3.70;;;;;;;2.85;95.41;99752.35;105899;1253;71373;-75
2023/04/04 00:09:11;;;;;;;4.00;3.40;;;;;;;2.93;95.37;99747.36;105870;1257;72953;-77
2023/04/04 00:11:43;;;;;;;4.00;3.50;;;;;;;2.94;95.13;99750.95;105875;1253;61413;-78
2023/04/04 00:14:16;;;;;;;4.30;3.70;;;;;;;2.86;95.14;99754.41;106168;1255;61351;-74
2023/04/04 00:16:43;;;;;;;3.40;2.90;;;;;;;2.90;95.14;99751.64;106066;1253;73460;-76
2023/04/04 00:19:16;;;;;;;3.50;3.10;;;;;;;2.95;94.78;99747.77;105976;1253;71419;-74
2023/04/04 00:21:44;;;;;;;3.40;3.10;;;;;;;2.89;95.09;99743.30;106116;1257;72630;-72
2023/04/04 00:24:15;;;;;;;4.10;2.90;;;;;;;2.92;95.79;99741.52;105785;1260;60723;-75
2023/04/04 00:26:42;;;;;;;3.60;3.30;;;;;;;3.05;95.87;99739.61;105825;1253;61523;-74
2023/04/04 00:29:09;;;;;;;4.20;3.20;;;;;;;3.11;96.01;99737.23;105995;1257;74248;-73
2023/04/04 00:31:37;;;;;;;3.20;2.80;;;;;;;3.09;95.94;99738.61;105886;1254;70458;-75
2023/04/04 00:34:09;;;;;;;3.00;2.60;;;;;;;3.15;95.11;99743.60;105750;1257;71748;-75
2023/04/04 00:36:37;;;;;;;2.60;2.40;;;;;;;3.15;94.61;99745.52;105814;1253;60811;-75
2023/04/04 00:39:05;;;;;;;3.20;2.90;;;;;;;3.14;95.22;99749.59;106030;1255;60570;-74
2023/04/04 00:41:42;;;;;;;3.50;3.00;;;;;;;3.13;95.55;99749.16;105690;1254;73967;-74
2023/04/04 00:44:10;;;;;;;5.60;3.40;;;;;;;3.19;95.14;99755.01;105866;1253;71560;-73
2023/04/04 00:46:37;;;;;;;7.90;5.60;;;;;;;3.24;94.15;99751.09;105687;1253;70579;-76
2023/04/04 00:49:16;;;;;;;5.80;5.10;;;;;;;3.17;93.82;99752.02;106076;1255;61079;-76
2023/04/04 00:51:43;;;;;;;5.70;4.40;;;;;;;3.08;93.73;99751.98;106081;1253;60502;-77
2023/04/04 00:54:11;;;;;;;5.00;4.50;;;;;;;3.09;93.38;99754.50;106083;1255;73851;-78
2023/04/04 00:56:42;;;;;;;6.10;5.20;;;;;;;3.10;93.11;99754.29;106178;1257;68400;-76
2023/04/04 00:59:17;;;;;;;7.50;6.70;;;;;;;3.02;93.31;99749.33;105723;1260;73836;-75
2023/04/04 01:01:44;;;;;;;9.10;7.90;;;;;;;3.03;93.93;99745.44;105912;1253;61230;-74
2023/04/04 01:04:19;;;;;;;14.40;13.00;;;;;;;3.15;93.71;99750.06;105698;1262;61469;-75
2023/04/04 01:06:48;;;;;;;15.50;14.00;;;;;;;3.14;93.11;99751.71;105856;1253;72766;-74
2023/04/04 01:09:20;;;;;;;;;;;;;;;3.10;93.24;99752.55;105895;1253;70435;-74
2023/04/04 01:11:49;;;;;;;8.20;7.00;;;;;;;3.15;92.41;99748.50;105761;1253;73105;-74
2023/04/04 01:14:16;;;;;;;7.40;6.70;;;;;;;3.12;92.00;99748.84;105570;1253;61285;-74
2023/04/04 01:16:50;;;;;;;9.30;8.30;;;;;;;2.96;91.67;99743.17;105799;1259;61886;-75
2023/04/04 01:20:04;;;;;;;8.90;8.00;;;;;;;2.86;92.45;99745.98;105785;1253;72668;-74
2023/04/04 01:22:53;;;;;;;11.40;10.30;;;;;;;2.93;92.55;99748.05;105767;1253;71570;-72
2023/04/04 01:25:33;;;;;;;9.70;8.40;;;;;;;2.89;92.54;99747.65;105854;1253;73295;-74
2023/04/04 01:28:05;;;;;;;9.00;7.50;;;;;;;2.89;92.51;99755.05;105779;1253;61859;-76
2023/04/04 01:30:37;;;;;;;8.60;6.50;;;;;;;2.97;92.39;99759.88;105657;1253;60424;-77
2023/04/04 01:33:31;;;;;;;10.00;9.00;;;;;;;2.91;91.97;99761.90;105667;1254;72452;-74
2023/04/04 01:36:02;;;;;;;7.50;5.90;;;;;;;2.84;92.47;99761.19;105694;1258;69153;-74
2023/04/04 01:38:50;;;;;;;7.50;6.80;;;;;;;2.90;92.40;99764.02;105832;1253;71647;-72
2023/04/04 01:41:19;;;;;;;7.70;6.90;;;;;;;2.96;92.10;99768.52;105920;1257;60593;-72
2023/04/04 01:43:52;;;;;;;;;;;;;;;2.89;92.05;99775.16;105780;1258;61556;-75
2023/04/04 01:46:21;;;;;;;5.30;4.80;;;;;;;2.81;92.70;99776.84;105856;1258;75079;-73
2023/04/04 01:48:53;;;;;;;4.70;4.30;;;;;;;2.89;92.77;99779.35;105546;1253;71363;-76
2023/04/04 01:51:32;;;;;;;5.10;4.60;;;;;;;2.88;92.52;99782.95;105853;1260;72916;-74
2023/04/04 01:54:06;;;;;;;6.00;3.70;;;;;;;2.88;92.99;99785.55;105631;1254;61927;-76
2023/04/04 01:56:34;;;;;;;5.50;4.90;;;;;;;2.98;92.47;99787.98;105910;1253;60534;-76
2023/04/04 01:59:06;;;;;;;5.40;4.90;;;;;;;2.98;92.11;99788.48;105903;1253;74486;-77
2023/04/04 02:01:35;;;;;;;4.90;4.00;;;;;;;2.90;92.23;99785.73;105593;1260;71292;-76
2023/04/04 02:04:07;;;;;;;7.80;5.20;;;;;;;2.96;92.26;99786.55;105795;1257;73150;-77
2023/04/04 02:06:41;;;;;;;5.70;5.10;;;;;;;2.91;92.11;99788.32;105838;1256;60533;-77
2023/04/04 02:09:08;;;;;;;9.20;5.50;;;;;;;2.84;92.45;99783.56;105817;1254;60437;-77
2023/04/04 02:11:37;;;;;;;5.80;4.50;;;;;;;2.87;92.03;99779.34;105893;1258;73177;-75
2023/04/04 02:14:13;;;;;;;5.60;5.10;;;;;;;2.90;91.90;99774.94;105897;1253;69717;-74
2023/04/04 02:16:42;;;;;;;5.80;5.20;;;;;;;2.86;92.33;99770.32;105829;1260;73161;-73
2023/04/04 02:19:10;;;;;;;6.10;4.80;;;;;;;2.84;92.52;99768.02;106628;1253;60486;-76
2023/04/04 02:21:43;;;;;;;6.00;4.90;;;;;;;2.88;92.53;99766.81;105809;1260;62158;-74
2023/04/04 02:24:13;;;;;;;5.10;4.60;;;;;;;2.94;91.94;99767.56;105735;1254;75060;-71
2023/04/04 02:26:41;;;;;;;8.40;6.00;;;;;;;2.93;92.51;99769.55;105878;1253;71207;-76
2023/04/04 02:29:13;;;;;;;6.80;5.90;;;;;;;2.89;92.15;99768.51;105875;1253;73814;-76
2023/04/04 02:31:44;;;;;;;5.00;4.50;;;;;;;2.88;91.66;99761.91;105981;1256;60429;-76
2023/04/04 02:34:11;;;;;;;5.70;4.60;;;;;;;2.91;91.57;99759.60;105881;1253;60525;-76
2023/04/04 02:36:51;;;;;;;6.10;5.20;;;;;;;2.87;91.60;99753.95;105975;1253;75003;-74
2023/04/04 02:39:22;;;;;;;5.60;4.90;;;;;;;2.86;92.06;99749.52;105849;1254;71482;-75
2023/04/04 02:41:51;;;;;;;5.50;4.80;;;;;;;2.91;91.61;99748.79;105566;1260;71326;-74
2023/04/04 02:44:21;;;;;;;8.40;4.70;;;;;;;2.93;91.42;99747.02;105862;1254;60537;-76
2023/04/04 02:46:54;;;;;;;8.10;6.60;;;;;;;2.90;91.77;99746.55;105809;1253;61354;-75
2023/04/04 02:49:30;;;;;;;8.00;6.50;;;;;;;2.81;92.04;99746.05;105900;1254;76506;-76
2023/04/04 02:52:01;;;;;;;8.40;6.30;;;;;;;2.84;92.23;99744.06;105962;1253;68835;-74
2023/04/04 02:54:33;;;;;;;9.90;7.60;;;;;;;2.91;91.94;99743.48;105751;1258;74136;-71
2023/04/04 02:57:03;;;;;;;9.60;7.10;;;;;;;2.89;91.75;99742.11;105674;1254;61414;-73
2023/04/04 02:59:35;;;;;;;8.50;6.70;;;;;;;2.82;91.99;99746.13;105547;1259;61504;-72
2023/04/04 03:02:04;;;;;;;9.60;5.70;;;;;;;2.83;91.88;99745.75;105744;1254;75414;-72
2023/04/04 03:04:35;;;;;;;7.60;6.00;;;;;;;2.82;91.81;99746.34;105918;1254;70345;-74
2023/04/04 03:07:05;;;;;;;8.40;6.00;;;;;;;2.73;92.09;99752.39;105942;1254;71689;-72
2023/04/04 03:09:43;;;;;;;7.10;5.70;;;;;;;2.69;92.36;99759.75;105850;1254;61897;-75
2023/04/04 03:12:12;;;;;;;6.60;4.80;;;;;;;2.69;91.97;99765.28;106040;1257;60917;-72
2023/04/04 03:14:42;;;;;;;6.10;4.50;;;;;;;2.71;92.30;99764.11;106470;1253;75086;-74
2023/04/04 03:17:13;;;;;;;6.80;5.50;;;;;;;2.73;92.79;99764.84;106150;1256;72406;-75
2023/04/04 03:19:44;;;;;;;7.00;5.60;;;;;;;2.68;92.53;99769.93;106899;1257;73773;-73
2023/04/04 03:22:12;;;;;;;8.50;5.90;;;;;;;2.68;92.83;99775.19;107144;1253;60795;-76
2023/04/04 03:24:43;;;;;;;7.90;6.90;;;;;;;2.76;92.80;99777.70;107051;1254;61277;-73
2023/04/04 03:27:13;;;;;;;9.20;6.90;;;;;;;2.72;92.88;99778.59;106884;1253;74876;-74
2023/04/04 03:29:44;;;;;;;7.90;5.80;;;;;;;2.66;92.91;99782.49;106959;1253;71537;-74
2023/04/04 03:32:14;;;;;;;10.20;7.40;;;;;;;2.74;93.16;99790.29;107232;1261;73553;-71
2023/04/04 03:34:43;;;;;;;10.30;7.30;;;;;;;2.78;92.93;99793.11;107363;1253;60450;-76
2023/04/04 03:37:15;;;;;;;9.40;6.50;;;;;;;2.75;92.82;99793.03;107216;1253;60398;-76
2023/04/04 03:39:45;;;;;;;7.20;5.40;;;;;;;2.73;92.94;99792.98;106433;1256;73952;-73
2023/04/04 03:42:12;;;;;;;6.70;5.80;;;;;;;2.78;92.41;99793.85;106288;1258;68296;-75
2023/04/04 03:44:41;;;;;;;7.80;6.70;;;;;;;2.70;92.27;99789.88;105987;1253;72705;-73
2023/04/04 03:47:13;;;;;;;6.30;5.10;;;;;;;2.68;92.82;99788.71;106046;1253;62024;-74
2023/04/04 03:49:43;;;;;;;8.30;6.20;;;;;;;2.73;92.82;99788.78;106093;1253;61100;-71
2023/04/04 03:52:12;;;;;;;6.60;5.40;;;;;;;2.74;92.83;99784.21;105931;1253;72755;-75
2023/04/04 03:54:40;;;;;;;7.20;5.70;;;;;;;2.71;92.77;99783.85;106161;1254;71181;-74
2023/04/04 03:57:11;;;;;;;8.60;6.00;;;;;;;2.75;92.31;99783.88;106069;1253;72676;-74
2023/04/04 03:59:41;;;;;;;7.90;5.90;;;;;;;2.82;92.93;99779.74;105871;1253;63221;-72
2023/04/04 04:02:10;;;;;;;8.30;5.90;;;;;;;2.78;93.08;99776.73;105850;1253;61038;-71
2023/04/04 04:04:39;;;;;;;7.50;5.00;;;;;;;2.77;92.68;99778.54;105966;1253;72907;-75
2023/04/04 04:07:06;;;;;;;6.70;5.60;;;;;;;2.84;92.31;99782.94;107123;1253;70305;-74
2023/04/04 04:09:38;;;;;;;6.60;5.40;;;;;;;2.78;92.09;99790.89;107630;1259;71305;-78
2023/04/04 04:12:12;;;;;;;7.90;5.30;;;;;;;2.70;92.22;99793.11;106299;1254;61762;-75
2023/04/04 04:14:45;;;;;;;6.50;4.70;;;;;;;2.73;92.30;99792.98;106179;1253;61319;-74
2023/04/04 04:17:21;;;;;;;9.10;5.50;;;;;;;2.76;92.30;99791.50;105819;1254;74659;-74
2023/04/04 04:19:50;;;;;;;8.40;5.80;;;;;;;2.72;92.67;99794.29;106545;1253;73543;-74
2023/04/04 04:22:18;;;;;;;7.40;5.40;;;;;;;2.68;92.46;99798.27;106084;1256;73779;-75
2023/04/04 04:24:48;;;;;;;8.40;6.00;;;;;;;2.72;92.32;99803.06;106336;1254;60521;-75
2023/04/04 04:27:16;;;;;;;8.10;6.80;;;;;;;2.69;92.47;99800.82;105672;1253;399242;-75
2023/04/04 04:31:25;;;;;;;7.10;5.60;;;;;;;2.75;92.97;99807.23;103946;1286;600448;-75
2023/04/04 04:33:56;;;;;;;6.80;5.50;;;;;;;2.81;92.33;99810.98;107998;1255;59226;-76
2023/04/04 04:36:35;;;;;;;7.70;6.10;;;;;;;2.75;92.21;99807.23;108251;1254;61007;-74
2023/04/04 04:39:35;;;;;;;9.30;6.30;;;;;;;2.72;92.81;99805.48;107609;1254;72285;-76
2023/04/04 04:42:46;;;;;;;6.70;4.90;;;;;;;2.78;92.10;99803.66;107314;1259;69461;-73
2023/04/04 04:45:21;;;;;;;7.60;6.10;;;;;;;2.75;91.91;99805.39;107312;1258;375656;-76
2023/04/04 04:48:09;;;;;;;8.70;5.70;;;;;;;2.70;92.26;99803.73;108170;1253;60044;-73
2023/04/04 04:50:48;;;;;;;6.90;5.90;;;;;;;2.72;92.12;99804.64;108770;1252;59552;-71
2023/04/04 04:53:30;;;;;;;6.90;6.10;;;;;;;2.74;91.58;99802.52;107560;1253;73371;-74
2023/04/04 04:56:02;;;;;;;8.40;6.90;;;;;;;2.67;91.82;99803.26;107551;1253;70269;-72
2023/04/04 04:58:33;;;;;;;8.90;6.20;;;;;;;2.61;92.28;99808.09;108623;1258;72666;-76
2023/04/04 05:01:26;;;;;;;7.30;5.70;;;;;;;2.67;92.12;99809.88;108174;1254;61997;-75
2023/04/04 05:03:56;;;;;;;6.60;5.10;;;;;;;2.69;91.93;99809.60;107705;1253;60024;-74
2023/04/04 05:06:38;;;;;;;8.90;5.80;;;;;;;2.61;92.04;99812.42;108041;1254;74334;-74
2023/04/04 05:09:13;;;;;;;7.90;5.20;;;;;;;2.60;92.29;99807.11;106471;1256;69400;-68
2023/04/04 05:11:48;;;;;;;7.10;4.50;;;;;;;2.67;92.35;99804.83;108308;1252;73455;-74
2023/04/04 05:14:19;;;;;;;6.80;5.60;;;;;;;2.70;92.64;99803.39;109287;1254;58812;-72
2023/04/04 05:16:52;;;;;;;6.10;4.80;;;;;;;2.69;92.74;99807.11;109256;1253;59981;-75
2023/04/04 05:19:23;;;;;;;5.50;4.20;;;;;;;2.79;92.30;99810.77;109156;1253;73167;-72
2023/04/04 05:21:53;;;;;;;5.40;4.60;;;;;;;2.82;91.78;99814.54;109137;1253;68577;-74
2023/04/04 05:24:34;;;;;;;6.20;5.00;;;;;;;2.83;91.79;99822.29;109086;1253;72654;-72
2023/04/04 05:27:03;;;;;;;5.60;4.50;;;;;;;2.79;91.76;99824.58;109032;1253;60103;-76
2023/04/04 05:29:38;;;;;;;6.50;5.00;;;;;;;2.88;91.74;99825.48;109127;1253;60499;-73
2023/04/04 05:32:09;;;;;;;12.20;10.40;;;;;;;2.95;91.32;99838.35;108750;1254;70617;-75
2023/04/04 05:34:39;;;;;;;18.40;16.00;;;;;;;2.90;91.02;99848.92;108967;1253;70382;-75
2023/04/04 05:37:16;;;;;;;18.00;16.10;;;;;;;2.87;91.36;99851.56;108545;1253;72258;-75
2023/04/04 05:39:48;;;;;;;18.30;16.40;;;;;;;2.96;90.93;99839.16;108281;1254;61893;-75
2023/04/04 05:42:18;;;;;;;17.60;15.70;;;;;;;3.01;90.76;99820.97;108509;1254;60953;-73
2023/04/04 05:44:55;;;;;;;19.00;17.10;;;;;;;3.01;91.42;99796.47;108535;1259;73534;-73
2023/04/04 05:47:25;;;;;;;12.40;10.80;;;;;;;3.05;91.34;99789.89;108103;1256;68677;-73
2023/04/04 05:49:57;;;;;;;8.90;7.30;;;;;;;3.16;91.12;99810.04;108289;1254;71431;-77
2023/04/04 05:52:28;;;;;;;8.40;7.50;;;;;;;3.23;90.75;99835.17;107869;1254;58370;-73
2023/04/04 05:55:02;;;;;;;9.20;8.20;;;;;;;3.13;90.33;99842.61;105951;1254;61730;-74
2023/04/04 05:57:33;;;;;;;8.20;7.40;;;;;;;3.13;91.41;99836.84;106034;1257;74450;-75
2023/04/04 06:00:08;;;;;;;8.30;7.20;;;;;;;3.24;90.81;99833.55;105867;1254;72175;-74
2023/04/04 06:02:43;;;;;;;8.20;6.90;;;;;;;3.24;90.66;99836.83;105895;1257;73485;-73
2023/04/04 06:05:17;;;;;;;7.20;5.60;;;;;;;3.18;90.70;99848.39;105983;1257;60473;-74
2023/04/04 06:07:49;;;;;;;5.40;4.50;;;;;;;3.17;90.33;99853.84;105750;1254;60409;-74
2023/04/04 06:10:22;;;;;;;6.40;5.30;;;;;;;3.10;90.39;99857.53;106098;1256;74737;-74
2023/04/04 06:12:54;;;;;;;8.50;7.40;;;;;;;2.97;90.38;99856.08;105736;1254;71590;-72
2023/04/04 06:15:24;;;;;;;7.20;5.40;;;;;;;3.01;90.84;99861.55;105662;1259;71422;-73
2023/04/04 06:17:54;;;;;;;5.10;4.50;;;;;;;3.11;91.13;99863.96;105720;1254;60456;-77
2023/04/04 06:20:26;;;;;;;8.20;5.00;;;;;;;3.15;91.16;99862.73;105990;1254;60248;-78
2023/04/04 06:23:00;;;;;;;6.50;5.20;;;;;;;3.19;91.27;99865.94;105776;1259;73843;-74
2023/04/04 06:25:31;;;;;;;6.80;6.10;;;;;;;3.27;90.24;99862.51;105875;1254;71205;-74
2023/04/04 06:28:02;;;;;;;7.40;6.00;;;;;;;3.32;90.05;99857.42;105944;1254;73421;-74
2023/04/04 06:30:36;;;;;;;6.80;6.10;;;;;;;3.33;90.37;99854.85;105764;1254;60187;-74
2023/04/04 06:33:14;;;;;;;7.70;6.10;;;;;;;3.35;90.94;99859.10;105753;1260;59593;-74
2023/04/04 06:35:50;;;;;;;6.90;5.20;;;;;;;3.44;90.58;99857.93;105913;1259;73209;-75
2023/04/04 06:38:20;;;;;;;6.80;5.90;;;;;;;3.55;90.39;99860.00;105698;1259;69542;-74
2023/04/04 06:40:51;;;;;;;9.90;6.20;;;;;;;3.56;89.87;99859.77;105804;1254;71667;-75
2023/04/04 06:43:24;;;;;;;7.60;5.40;;;;;;;3.48;89.53;99854.95;105797;1254;63479;-74
2023/04/04 06:46:00;;;;;;;7.60;6.80;;;;;;;3.49;89.05;99845.14;105619;1263;60357;-75
2023/04/04 06:48:30;;;;;;;12.90;10.90;;;;;;;3.52;89.34;99840.50;105795;1256;73774;-74
2023/04/04 06:51:05;;;;;;;10.90;8.90;;;;;;;3.48;89.51;99841.09;105716;1257;71286;-73
2023/04/04 06:53:35;;;;;;;9.40;7.50;;;;;;;3.49;89.11;99845.09;105825;1254;71960;-76
2023/04/04 06:56:09;;;;;;;7.70;6.10;;;;;;;3.56;88.96;99840.20;106026;1258;61935;-76
2023/04/04 06:58:42;;;;;;;6.60;5.70;;;;;;;3.60;89.67;99834.42;105836;1254;61521;-72
2023/04/04 07:01:32;;;;;;;7.20;6.10;;;;;;;3.64;90.02;99836.38;106935;1254;73873;-78
2023/04/04 07:04:04;;;;;;;9.20;8.30;;;;;;;3.77;89.61;99835.02;106351;1259;68899;-71
2023/04/04 07:06:36;;;;;;;9.10;8.20;;;;;;;3.90;89.01;99835.88;105740;1259;72333;-71
2023/04/04 07:09:11;;;;;;;6.80;6.10;;;;;;;3.92;88.24;99840.30;105903;1256;61368;-70
2023/04/04 07:11:57;;;;;;;6.00;5.10;;;;;;;3.84;87.07;99840.62;105840;1254;59691;-71
2023/04/04 07:14:29;;;;;;;7.90;6.40;;;;;;;3.86;87.02;99843.39;105986;1259;72531;-78
2023/04/04 07:16:59;;;;;;;8.00;6.40;;;;;;;3.83;87.16;99847.67;105922;1254;71256;-75
2023/04/04 07:19:38;;;;;;;9.80;8.10;;;;;;;3.78;87.26;99852.07;105709;1254;73889;-74
2023/04/04 07:22:12;;;;;;;9.20;8.30;;;;;;;3.84;87.17;99852.14;105612;1261;59658;-77
2023/04/04 07:24:50;;;;;;;8.70;7.50;;;;;;;3.84;87.98;99853.36;105875;1255;61570;-72
2023/04/04 07:27:19;;;;;;;8.10;6.20;;;;;;;3.81;87.92;99853.80;105711;1255;72988;-74
2023/04/04 07:29:51;;;;;;;5.30;4.60;;;;;;;3.81;86.64;99852.89;105909;1261;69600;-73
2023/04/04 07:32:22;;;;;;;6.80;5.70;;;;;;;3.80;86.84;99853.73;105862;1261;72873;-74
2023/04/04 07:34:53;;;;;;;9.50;6.80;;;;;;;3.73;87.08;99859.48;106051;1254;60653;-78
2023/04/04 07:37:27;;;;;;;14.10;11.70;;;;;;;3.67;87.21;99864.65;105733;1254;59628;-74
2023/04/04 07:40:03;;;;;;;9.80;8.40;;;;;;;3.74;87.25;99871.33;105775;1254;74235;-73
2023/04/04 07:42:34;;;;;;;7.20;6.40;;;;;;;3.78;87.51;99871.20;105643;1254;71677;-75
2023/04/04 07:45:04;;;;;;;10.50;6.80;;;;;;;3.73;87.69;99870.64;105920;1256;72214;-79
2023/04/04 07:47:45;;;;;;;9.80;6.90;;;;;;;3.74;87.89;99874.64;105620;1254;63980;-74
2023/04/04 07:50:14;;;;;;;7.80;6.10;;;;;;;3.88;87.61;99878.48;105911;1254;59732;-73
2023/04/04 07:52:53;;;;;;;10.20;8.50;;;;;;;3.84;87.04;99877.23;105727;1254;72135;-75
2023/04/04 07:55:24;;;;;;;12.10;7.70;;;;;;;3.79;87.77;99872.36;105687;1257;69613;-73
2023/04/04 07:57:53;;;;;;;9.30;8.40;;;;;;;3.86;87.48;99874.40;105801;1259;74028;-74
2023/04/04 08:00:29;;;;;;;8.80;7.00;;;;;;;3.88;87.35;99870.02;105951;1254;60427;-78
2023/04/04 08:03:18;;;;;;;10.10;7.10;;;;;;;3.88;87.91;99874.56;105847;1258;60135;-74
2023/04/04 08:05:50;;;;;;;9.50;6.70;;;;;;;3.91;88.62;99874.88;105943;1257;73719;-74
2023/04/04 08:08:26;;;;;;;8.10;6.00;;;;;;;4.04;87.99;99874.70;106139;1254;71275;-77
2023/04/04 08:11:01;;;;;;;12.00;8.90;;;;;;;4.06;87.50;99877.16;106236;1254;73999;-77
2023/04/04 08:13:34;;;;;;;10.60;8.00;;;;;;;4.03;87.30;99871.50;106119;1254;61899;-75
2023/04/04 08:16:05;;;;;;;12.20;10.20;;;;;;;4.11;87.26;99874.31;105952;1254;60284;-74
2023/04/04 08:18:35;;;;;;;14.20;10.70;;;;;;;4.11;86.85;99876.23;105723;1259;74089;-73
2023/04/04 08:21:10;;;;;;;16.10;14.20;;;;;;;3.98;86.85;99872.04;105857;1259;69421;-75
2023/04/04 08:23:48;;;;;;;19.70;16.30;;;;;;;3.91;86.49;99871.88;105819;1253;72866;-77
2023/04/04 08:26:24;;;;;;;13.60;11.80;;;;;;;3.89;86.72;99868.40;105796;1254;63123;-74
2023/04/04 08:28:54;;;;;;;12.30;10.50;;;;;;;3.89;86.54;99874.36;105989;1257;61017;-75
2023/04/04 08:31:24;;;;;;;18.30;15.00;;;;;;;3.78;87.16;99868.36;106002;1254;72878;-74
2023/04/04 08:33:53;;;;;;;12.60;10.70;;;;;;;3.76;87.44;99870.81;105788;1254;70351;-75
2023/04/04 08:36:23;;;;;;;11.10;8.20;;;;;;;3.83;87.54;99872.19;105732;1259;73956;-75
2023/04/04 08:38:51;;;;;;;9.70;8.60;;;;;;;3.89;87.31;99869.81;105996;1258;59622;-75
2023/04/04 08:41:22;;;;;;;13.30;10.80;;;;;;;3.85;87.44;99873.47;106078;1257;60659;-74
2023/04/04 08:43:55;;;;;;;9.60;8.60;;;;;;;3.86;88.29;99873.01;105603;1254;72231;-76
2023/04/04 08:46:25;;;;;;;10.10;8.30;;;;;;;4.02;88.61;99878.22;105639;1254;70661;-76
2023/04/04 08:48:57;;;;;;;9.50;8.50;;;;;;;4.12;88.45;99884.92;105955;1259;72821;-76
2023/04/04 08:51:31;;;;;;;8.80;7.20;;;;;;;4.17;88.24;99883.55;105659;1260;61085;-76
2023/04/04 08:54:01;;;;;;;10.20;7.90;;;;;;;4.25;87.33;99886.56;105759;1254;62006;-75
2023/04/04 08:56:30;;;;;;;9.40;8.20;;;;;;;4.30;87.81;99893.34;105830;1254;74990;-77
2023/04/04 08:58:59;;;;;;;10.50;9.40;;;;;;;4.29;87.40;99897.12;105614;1261;69443;-74
2023/04/04 09:01:29;;;;;;;8.90;7.00;;;;;;;4.23;87.03;99896.36;105788;1257;73664;-75
2023/04/04 09:04:02;;;;;;;8.40;7.00;;;;;;;4.24;86.64;99896.08;105661;1254;63982;-78
2023/04/04 09:06:33;;;;;;;9.80;8.60;;;;;;;4.14;86.35;99894.09;105784;1260;61360;-75
2023/04/04 09:09:06;;;;;;;6.10;5.50;;;;;;;3.99;86.67;99896.54;105911;1254;73818;-75
2023/04/04 09:11:34;;;;;;;7.90;6.40;;;;;;;4.02;87.37;99895.55;105903;1254;71560;-76
2023/04/04 09:14:03;;;;;;;8.40;6.80;;;;;;;4.05;87.09;99895.54;105657;1259;72390;-76
2023/04/04 09:16:32;;;;;;;10.20;7.80;;;;;;;3.98;86.88;99892.20;105869;1256;63620;-73
2023/04/04 09:19:05;;;;;;;9.10;8.20;;;;;;;4.07;87.23;99893.08;105777;1260;61255;-73
2023/04/04 09:21:34;;;;;;;13.60;10.70;;;;;;;4.20;88.07;99893.81;105759;1254;74113;-75
2023/04/04 09:24:06;;;;;;;9.20;7.80;;;;;;;4.28;87.59;99894.14;105654;1254;70389;-73
2023/04/04 09:26:52;;;;;;;7.20;6.10;;;;;;;4.47;88.18;99895.98;105773;1254;71579;-74
2023/04/04 09:29:23;;;;;;;9.40;7.30;;;;;;;4.72;88.51;99894.31;105586;1254;60502;-76
2023/04/04 09:31:56;;;;;;;8.20;7.10;;;;;;;4.85;87.94;99894.29;105840;1255;60358;-76
2023/04/04 09:34:39;;;;;;;6.80;6.10;;;;;;;4.90;86.58;99891.05;105785;1254;73890;-77
2023/04/04 09:38:25;;;;;;;9.50;7.30;;;;;;;5.06;86.20;99892.72;105728;1263;68861;-77
2023/04/04 09:40:55;;;;;;;8.90;7.30;;;;;;;5.10;86.64;99891.35;105399;1263;73452;-76
2023/04/04 09:43:29;;;;;;;10.20;8.20;;;;;;;5.17;86.79;99896.14;105835;1264;60812;-78
2023/04/04 09:46:07;;;;;;;8.70;7.70;;;;;;;5.32;85.76;99896.48;105987;1259;60495;-78
2023/04/04 09:48:40;;;;;;;10.50;9.50;;;;;;;5.41;85.63;99889.91;105838;1262;73312;-78
2023/04/04 09:51:11;;;;;;;9.50;8.50;;;;;;;5.48;85.87;99886.89;105861;1257;70816;-79
2023/04/04 09:53:40;;;;;;;6.60;5.90;;;;;;;5.57;86.01;99884.71;105909;1259;73574;-77
2023/04/04 09:56:10;;;;;;;7.70;6.30;;;;;;;5.72;84.14;99884.44;105998;1257;62718;-77
2023/04/04 09:58:40;;;;;;;7.00;5.80;;;;;;;5.79;83.92;99885.46;106107;1254;60371;-77
2023/04/04 10:01:25;;;;;;;7.10;6.40;;;;;;;5.82;83.49;99887.27;105863;1254;74494;-78
2023/04/04 10:03:54;;;;;;;7.10;5.50;;;;;;;5.86;82.48;99886.54;106335;1259;70446;-79
2023/04/04 10:06:37;;;;;;;6.60;5.70;;;;;;;5.89;82.53;99889.63;105897;1259;72058;-78
2023/04/04 10:09:08;;;;;;;8.00;6.90;;;;;;;5.84;82.02;99886.23;105913;1254;60536;-77
2023/04/04 10:11:47;;;;;;;8.40;6.00;;;;;;;5.78;82.27;99887.80;106365;1258;60286;-79
2023/04/04 10:14:18;;;;;;;6.00;5.00;;;;;;;5.88;82.03;99889.02;107649;1255;73205;-76
2023/04/04 10:16:47;;;;;;;9.90;7.10;;;;;;;5.93;81.93;99885.09;106311;1259;70475;-78
2023/04/04 10:19:18;;;;;;;8.60;7.30;;;;;;;5.91;81.94;99879.23;105972;1254;72027;-77
2023/04/04 10:21:49;;;;;;;7.60;5.90;;;;;;;5.97;82.77;99877.23;105918;1259;60494;-78
2023/04/04 10:24:21;;;;;;;5.40;4.90;;;;;;;6.17;82.84;99878.39;106464;1254;60540;-78
2023/04/04 10:26:52;;;;;;;6.30;5.70;;;;;;;6.34;82.76;99880.77;106978;1253;72843;-79
2023/04/04 10:29:23;;;;;;;7.50;6.50;;;;;;;6.45;82.92;99880.15;106566;1254;72654;-78
2023/04/04 10:31:59;;;;;;;6.10;4.70;;;;;;;6.54;82.18;99879.35;106339;1254;72619;-79
2023/04/04 10:34:51;;;;;;;11.20;5.50;;;;;;;6.69;81.68;99873.76;106201;1254;63149;-79
2023/04/04 10:37:26;;;;;;;6.70;5.60;;;;;;;6.78;81.05;99866.66;107221;1257;60335;-78
2023/04/04 10:40:14;;;;;;;6.10;4.50;;;;;;;6.77;79.21;99866.92;107429;1254;72631;-76
2023/04/04 10:42:46;;;;;;;5.70;5.10;;;;;;;6.83;79.51;99868.74;107908;1254;70597;-78
2023/04/04 10:45:15;;;;;;;5.50;4.50;;;;;;;6.83;78.85;99868.11;108183;1254;72602;-78
2023/04/04 10:47:48;;;;;;;4.90;4.10;;;;;;;6.85;79.43;99863.33;107732;1254;60565;-77
2023/04/04 10:50:17;;;;;;;6.70;5.50;;;;;;;6.89;79.21;99869.14;107953;1253;60310;-76
2023/04/04 10:52:45;;;;;;;6.80;4.80;;;;;;;6.86;78.32;99873.11;106006;1256;75133;-79
2023/04/04 10:55:15;;;;;;;5.40;4.50;;;;;;;6.87;78.36;99875.60;107318;1256;71476;-79
2023/04/04 10:57:51;;;;;;;7.40;4.50;;;;;;;6.86;77.61;99880.44;108080;1258;71835;-79
2023/04/04 11:00:23;;;;;;;7.30;4.60;;;;;;;6.78;77.93;99881.10;107876;1254;60422;-76
2023/04/04 11:02:58;;;;;;;6.50;5.20;;;;;;;6.73;79.15;99881.13;107458;1254;61554;-78
2023/04/04 11:05:39;;;;;;;4.60;3.70;;;;;;;6.71;78.88;99876.40;108030;1254;71634;-76
2023/04/04 11:08:12;;;;;;;6.70;5.30;;;;;;;6.80;79.24;99876.30;107974;1254;69248;-75
2023/04/04 11:10:42;;;;;;;6.40;5.80;;;;;;;6.79;78.36;99874.09;108079;1254;71322;-78
2023/04/04 11:13:31;;;;;;;4.90;4.40;;;;;;;6.72;78.65;99870.89;108479;1253;61168;-78
2023/04/04 11:16:08;;;;;;;9.10;5.60;;;;;;;6.76;78.57;99869.78;108838;1253;60005;-80
2023/04/04 11:18:44;;;;;;;10.30;7.20;;;;;;;6.74;78.13;99870.84;108572;1254;73780;-78
2023/04/04 11:21:17;;;;;;;8.10;6.40;;;;;;;6.71;78.58;99867.92;108982;1254;69377;-78
2023/04/04 11:23:47;;;;;;;8.00;6.50;;;;;;;6.71;77.87;99866.70;109331;1258;73651;-78
2023/04/04 11:26:25;;;;;;;7.10;5.40;;;;;;;6.77;77.62;99870.78;109108;1254;61002;-77
2023/04/04 11:28:57;;;;;;;9.10;7.20;;;;;;;6.74;78.22;99872.23;109263;1254;59003;-78
2023/04/04 11:31:31;;;;;;;8.50;5.60;;;;;;;6.68;78.79;99872.10;109208;1255;73522;-79
2023/04/04 11:34:05;;;;;;;14.40;5.20;;;;;;;6.67;79.09;99868.84;109146;1253;70156;-78
2023/04/04 11:36:36;;;;;;;10.30;5.90;;;;;;;6.64;78.33;99874.06;109190;1254;72603;-76
2023/04/04 11:39:11;;;;;;;7.60;4.80;;;;;;;6.55;77.78;99873.63;109168;1254;60860;-78
2023/04/04 11:41:56;;;;;;;6.90;4.40;;;;;;;6.54;77.98;99874.98;109172;1253;60000;-80
2023/04/04 11:44:33;;;;;;;6.30;5.60;;;;;;;6.47;77.71;99878.23;109365;1253;73540;-80
2023/04/04 11:47:18;;;;;;;6.60;5.10;;;;;;;6.44;78.53;99878.63;109334;1253;69568;-79
2023/04/04 11:49:46;;;;;;;9.20;4.90;;;;;;;6.56;78.63;99875.29;108946;1254;71744;-77
2023/04/04 11:52:18;;;;;;;7.50;5.40;;;;;;;6.59;78.62;99869.09;109265;1254;59297;-78
2023/04/04 11:54:47;;;;;;;8.60;5.90;;;;;;;6.56;78.82;99865.48;109174;1254;60274;-78
2023/04/04 11:57:21;;;;;;;6.10;5.30;;;;;;;6.54;78.77;99869.48;109274;1253;73897;-78
2023/04/04 12:00:40;;;;;;;5.60;4.90;;;;;;;6.66;78.56;99870.32;109221;1254;68994;-76
2023/04/04 12:03:11;;;;;;;8.80;6.40;;;;;;;6.68;79.09;99869.95;108955;1253;71611;-78